sensor_id;sensor_type;location;lat;lon;timestamp;P1;durP1;ratioP1;P2;durP2;ratioP2
66139;SDS011;52945;51.908;8.364;2022-09-09T00:04:38;1.10;;;0.75;;
66139;SDS011;52945;51.908;8.364;2022-09-09T00:07:42;3.40;;;0.77;;
66139;SDS011;52945;51.908;8.364;2022-09-09T00:10:51;1.48;;;0.70;;
66139;SDS011;52945;51.908;8.364;2022-09-09T00:13:59;1.00;;;0.68;;
66139;SDS011;52945;51.908;8.364;2022-09-09T00:17:08;1.08;;;0.65;;
66139;SDS011;52945;51.908;8.364;2022-09-09T00:20:16;1.98;;;0.63;;
66139;SDS011;52945;51.908;8.364;2022-09-09T00:23:31;2.83;;;0.90;;
66139;SDS011;52945;51.908;8.364;2022-09-09T00:26:44;2.63;;;1.00;;
66139;SDS011;52945;51.908;8.364;2022-09-09T00:29:53;0.85;;;0.63;;
66139;SDS011;52945;51.908;8.364;2022-09-09T00:33:00;2.38;;;0.90;;
66139;SDS011;52945;51.908;8.364;2022-09-09T00:36:15;3.83;;;1.05;;
66139;SDS011;52945;51.908;8.364;2022-09-09T00:39:36;1.92;;;1.00;;
66139;SDS011;52945;51.908;8.364;2022-09-09T00:42:42;1.63;;;0.82;;
66139;SDS011;52945;51.908;8.364;2022-09-09T01:02:26;3.83;;;0.93;;
66139;SDS011;52945;51.908;8.364;2022-09-09T01:12:56;2.40;;;0.95;;
66139;SDS011;52945;51.908;8.364;2022-09-09T01:15:41;2.45;;;0.80;;
66139;SDS011;52945;51.908;8.364;2022-09-09T01:18:48;3.00;;;0.88;;
66139;SDS011;52945;51.908;8.364;2022-09-09T01:28:45;1.92;;;1.20;;
66139;SDS011;52945;51.908;8.364;2022-09-09T01:34:52;1.90;;;1.10;;
66139;SDS011;52945;51.908;8.364;2022-09-09T01:40:53;0.80;;;0.70;;
66139;SDS011;52945;51.908;8.364;2022-09-09T01:43:54;1.63;;;0.80;;
66139;SDS011;52945;51.908;8.364;2022-09-09T01:46:55;2.58;;;0.90;;
66139;SDS011;52945;51.908;8.364;2022-09-09T01:52:58;3.00;;;0.77;;
66139;SDS011;52945;51.908;8.364;2022-09-09T02:08:59;0.65;;;0.60;;
66139;SDS011;52945;51.908;8.364;2022-09-09T02:12:34;1.67;;;0.73;;
66139;SDS011;52945;51.908;8.364;2022-09-09T02:15:33;2.30;;;0.70;;
66139;SDS011;52945;51.908;8.364;2022-09-09T02:19:42;1.30;;;0.80;;
66139;SDS011;52945;51.908;8.364;2022-09-09T02:22:27;1.70;;;0.80;;
66139;SDS011;52945;51.908;8.364;2022-09-09T02:25:29;1.25;;;0.70;;
66139;SDS011;52945;51.908;8.364;2022-09-09T02:31:31;0.75;;;0.70;;
66139;SDS011;52945;51.908;8.364;2022-09-09T02:34:36;1.48;;;0.70;;
66139;SDS011;52945;51.908;8.364;2022-09-09T02:37:42;0.98;;;0.73;;
66139;SDS011;52945;51.908;8.364;2022-09-09T02:40:47;2.55;;;1.10;;
66139;SDS011;52945;51.908;8.364;2022-09-09T02:47:10;2.90;;;0.77;;
66139;SDS011;52945;51.908;8.364;2022-09-09T03:00:10;2.25;;;1.25;;
66139;SDS011;52945;51.908;8.364;2022-09-09T03:03:11;1.92;;;0.82;;
66139;SDS011;52945;51.908;8.364;2022-09-09T03:09:12;1.75;;;1.00;;
66139;SDS011;52945;51.908;8.364;2022-09-09T03:15:14;1.33;;;0.90;;
66139;SDS011;52945;51.908;8.364;2022-09-09T03:18:15;2.70;;;0.95;;
66139;SDS011;52945;51.908;8.364;2022-09-09T03:24:16;2.13;;;0.98;;
66139;SDS011;52945;51.908;8.364;2022-09-09T03:27:17;4.22;;;0.93;;
66139;SDS011;52945;51.908;8.364;2022-09-09T03:30:22;1.60;;;1.08;;
66139;SDS011;52945;51.908;8.364;2022-09-09T03:33:24;2.92;;;1.00;;
66139;SDS011;52945;51.908;8.364;2022-09-09T03:39:26;1.13;;;0.70;;
66139;SDS011;52945;51.908;8.364;2022-09-09T03:45:27;2.25;;;1.10;;
66139;SDS011;52945;51.908;8.364;2022-09-09T03:51:28;1.00;;;0.90;;
66139;SDS011;52945;51.908;8.364;2022-09-09T03:54:29;2.15;;;0.70;;
66139;SDS011;52945;51.908;8.364;2022-09-09T03:57:30;1.88;;;0.93;;
66139;SDS011;52945;51.908;8.364;2022-09-09T04:03:32;1.45;;;1.25;;
66139;SDS011;52945;51.908;8.364;2022-09-09T04:09:33;3.85;;;1.20;;
66139;SDS011;52945;51.908;8.364;2022-09-09T04:12:34;1.38;;;1.00;;
66139;SDS011;52945;51.908;8.364;2022-09-09T04:18:36;1.52;;;1.13;;
66139;SDS011;52945;51.908;8.364;2022-09-09T04:24:39;2.70;;;1.05;;
66139;SDS011;52945;51.908;8.364;2022-09-09T04:30:40;2.45;;;0.90;;
66139;SDS011;52945;51.908;8.364;2022-09-09T04:33:42;2.03;;;1.10;;
66139;SDS011;52945;51.908;8.364;2022-09-09T04:39:44;3.78;;;1.10;;
66139;SDS011;52945;51.908;8.364;2022-09-09T04:45:49;2.88;;;1.13;;
66139;SDS011;52945;51.908;8.364;2022-09-09T04:48:51;3.42;;;0.90;;
66139;SDS011;52945;51.908;8.364;2022-09-09T04:51:52;4.03;;;1.42;;
66139;SDS011;52945;51.908;8.364;2022-09-09T04:57:54;2.42;;;1.20;;
66139;SDS011;52945;51.908;8.364;2022-09-09T05:04:02;3.35;;;1.02;;
66139;SDS011;52945;51.908;8.364;2022-09-09T05:10:03;1.10;;;1.02;;
66139;SDS011;52945;51.908;8.364;2022-09-09T05:13:05;1.83;;;1.38;;
66139;SDS011;52945;51.908;8.364;2022-09-09T05:19:07;1.90;;;1.17;;
66139;SDS011;52945;51.908;8.364;2022-09-09T05:22:08;1.65;;;1.00;;
66139;SDS011;52945;51.908;8.364;2022-09-09T05:25:08;1.95;;;0.90;;
66139;SDS011;52945;51.908;8.364;2022-09-09T05:31:11;0.80;;;0.80;;
66139;SDS011;52945;51.908;8.364;2022-09-09T05:34:13;1.25;;;1.00;;
66139;SDS011;52945;51.908;8.364;2022-09-09T05:40:14;1.58;;;1.00;;
66139;SDS011;52945;51.908;8.364;2022-09-09T05:46:19;2.17;;;1.17;;
66139;SDS011;52945;51.908;8.364;2022-09-09T05:49:21;2.13;;;1.33;;
66139;SDS011;52945;51.908;8.364;2022-09-09T05:55:23;4.05;;;1.40;;
66139;SDS011;52945;51.908;8.364;2022-09-09T05:58:25;2.70;;;1.20;;
66139;SDS011;52945;51.908;8.364;2022-09-09T06:04:28;3.95;;;1.42;;
66139;SDS011;52945;51.908;8.364;2022-09-09T06:07:30;2.15;;;1.30;;
66139;SDS011;52945;51.908;8.364;2022-09-09T06:13:31;3.95;;;1.30;;
66139;SDS011;52945;51.908;8.364;2022-09-09T06:16:32;3.30;;;1.35;;
66139;SDS011;52945;51.908;8.364;2022-09-09T06:19:34;3.22;;;1.30;;
66139;SDS011;52945;51.908;8.364;2022-09-09T06:25:35;1.60;;;1.27;;
66139;SDS011;52945;51.908;8.364;2022-09-09T06:28:36;5.63;;;1.30;;
66139;SDS011;52945;51.908;8.364;2022-09-09T06:31:37;1.73;;;1.10;;
66139;SDS011;52945;51.908;8.364;2022-09-09T06:34:38;3.92;;;1.40;;
66139;SDS011;52945;51.908;8.364;2022-09-09T06:37:38;2.78;;;1.30;;
66139;SDS011;52945;51.908;8.364;2022-09-09T06:40:39;3.67;;;1.33;;
66139;SDS011;52945;51.908;8.364;2022-09-09T06:43:39;4.00;;;1.38;;
66139;SDS011;52945;51.908;8.364;2022-09-09T06:46:40;3.08;;;1.30;;
66139;SDS011;52945;51.908;8.364;2022-09-09T06:49:41;2.47;;;1.40;;
66139;SDS011;52945;51.908;8.364;2022-09-09T06:52:45;2.03;;;1.08;;
66139;SDS011;52945;51.908;8.364;2022-09-09T06:55:47;1.60;;;1.20;;
66139;SDS011;52945;51.908;8.364;2022-09-09T06:58:48;2.22;;;1.10;;
66139;SDS011;52945;51.908;8.364;2022-09-09T07:01:50;2.17;;;1.30;;
66139;SDS011;52945;51.908;8.364;2022-09-09T07:04:51;2.10;;;1.05;;
66139;SDS011;52945;51.908;8.364;2022-09-09T07:07:52;4.80;;;1.30;;
66139;SDS011;52945;51.908;8.364;2022-09-09T07:10:53;3.53;;;1.13;;
66139;SDS011;52945;51.908;8.364;2022-09-09T07:16:54;3.67;;;1.23;;
66139;SDS011;52945;51.908;8.364;2022-09-09T07:19:55;4.15;;;1.30;;
66139;SDS011;52945;51.908;8.364;2022-09-09T07:22:56;3.13;;;1.33;;
66139;SDS011;52945;51.908;8.364;2022-09-09T07:25:59;3.83;;;1.23;;
66139;SDS011;52945;51.908;8.364;2022-09-09T07:28:59;5.40;;;1.20;;
66139;SDS011;52945;51.908;8.364;2022-09-09T07:32:00;3.53;;;1.13;;
66139;SDS011;52945;51.908;8.364;2022-09-09T07:35:02;1.88;;;0.90;;
66139;SDS011;52945;51.908;8.364;2022-09-09T07:38:03;2.53;;;1.23;;
66139;SDS011;52945;51.908;8.364;2022-09-09T07:41:07;3.58;;;1.50;;
66139;SDS011;52945;51.908;8.364;2022-09-09T07:44:22;1.85;;;1.20;;
66139;SDS011;52945;51.908;8.364;2022-09-09T07:47:24;6.80;;;1.63;;
66139;SDS011;52945;51.908;8.364;2022-09-09T07:50:25;2.80;;;1.40;;
66139;SDS011;52945;51.908;8.364;2022-09-09T07:53:26;4.47;;;1.20;;
66139;SDS011;52945;51.908;8.364;2022-09-09T07:56:26;2.25;;;1.20;;
66139;SDS011;52945;51.908;8.364;2022-09-09T07:59:28;2.85;;;1.30;;
66139;SDS011;52945;51.908;8.364;2022-09-09T08:02:30;5.35;;;1.42;;
66139;SDS011;52945;51.908;8.364;2022-09-09T08:05:30;2.13;;;0.90;;
66139;SDS011;52945;51.908;8.364;2022-09-09T08:08:33;2.40;;;1.10;;
66139;SDS011;52945;51.908;8.364;2022-09-09T08:11:34;1.02;;;1.00;;
66139;SDS011;52945;51.908;8.364;2022-09-09T08:14:36;1.05;;;0.80;;
66139;SDS011;52945;51.908;8.364;2022-09-09T08:17:36;1.15;;;0.80;;
66139;SDS011;52945;51.908;8.364;2022-09-09T08:20:37;3.55;;;0.90;;
66139;SDS011;52945;51.908;8.364;2022-09-09T08:23:41;2.17;;;1.13;;
66139;SDS011;52945;51.908;8.364;2022-09-09T08:26:44;1.70;;;0.90;;
66139;SDS011;52945;51.908;8.364;2022-09-09T08:29:50;0.75;;;0.63;;
66139;SDS011;52945;51.908;8.364;2022-09-09T08:32:51;1.33;;;0.70;;
66139;SDS011;52945;51.908;8.364;2022-09-09T08:35:52;2.60;;;0.82;;
66139;SDS011;52945;51.908;8.364;2022-09-09T08:38:53;5.45;;;1.00;;
66139;SDS011;52945;51.908;8.364;2022-09-09T08:45:18;3.60;;;0.70;;
66139;SDS011;52945;51.908;8.364;2022-09-09T08:51:41;2.75;;;0.82;;
66139;SDS011;52945;51.908;8.364;2022-09-09T08:54:42;1.13;;;0.90;;
66139;SDS011;52945;51.908;8.364;2022-09-09T08:57:42;1.58;;;0.60;;
66139;SDS011;52945;51.908;8.364;2022-09-09T09:04:11;1.40;;;0.70;;
66139;SDS011;52945;51.908;8.364;2022-09-09T09:10:56;3.35;;;0.77;;
66139;SDS011;52945;51.908;8.364;2022-09-09T09:14:01;2.72;;;0.80;;
66139;SDS011;52945;51.908;8.364;2022-09-09T09:17:11;3.05;;;0.68;;
66139;SDS011;52945;51.908;8.364;2022-09-09T09:20:15;2.10;;;0.98;;
66139;SDS011;52945;51.908;8.364;2022-09-09T09:23:22;3.20;;;0.80;;
66139;SDS011;52945;51.908;8.364;2022-09-09T09:26:25;2.72;;;0.70;;
66139;SDS011;52945;51.908;8.364;2022-09-09T09:29:36;3.10;;;0.90;;
66139;SDS011;52945;51.908;8.364;2022-09-09T09:32:38;1.80;;;0.50;;
66139;SDS011;52945;51.908;8.364;2022-09-09T09:35:40;2.20;;;0.60;;
66139;SDS011;52945;51.908;8.364;2022-09-09T09:38:58;2.00;;;0.57;;
66139;SDS011;52945;51.908;8.364;2022-09-09T09:42:07;1.75;;;0.65;;
66139;SDS011;52945;51.908;8.364;2022-09-09T09:45:16;2.67;;;0.70;;
66139;SDS011;52945;51.908;8.364;2022-09-09T09:48:28;2.45;;;0.80;;
66139;SDS011;52945;51.908;8.364;2022-09-09T09:51:29;2.28;;;0.90;;
66139;SDS011;52945;51.908;8.364;2022-09-09T09:54:33;1.85;;;0.60;;
66139;SDS011;52945;51.908;8.364;2022-09-09T09:57:37;1.55;;;0.50;;
66139;SDS011;52945;51.908;8.364;2022-09-09T10:00:38;4.32;;;0.63;;
66139;SDS011;52945;51.908;8.364;2022-09-09T10:03:53;2.85;;;0.80;;
66139;SDS011;52945;51.908;8.364;2022-09-09T10:06:56;4.18;;;0.60;;
66139;SDS011;52945;51.908;8.364;2022-09-09T10:09:57;2.10;;;0.70;;
66139;SDS011;52945;51.908;8.364;2022-09-09T10:13:11;0.90;;;0.60;;
66139;SDS011;52945;51.908;8.364;2022-09-09T10:19:31;2.08;;;0.80;;
66139;SDS011;52945;51.908;8.364;2022-09-09T10:22:34;4.40;;;1.00;;
66139;SDS011;52945;51.908;8.364;2022-09-09T10:29:30;0.88;;;0.60;;
66139;SDS011;52945;51.908;8.364;2022-09-09T10:39:32;1.92;;;0.60;;
66139;SDS011;52945;51.908;8.364;2022-09-09T10:42:36;1.77;;;0.70;;
66139;SDS011;52945;51.908;8.364;2022-09-09T10:45:58;3.53;;;0.63;;
66139;SDS011;52945;51.908;8.364;2022-09-09T10:52:30;2.67;;;0.80;;
66139;SDS011;52945;51.908;8.364;2022-09-09T10:55:53;2.47;;;0.90;;
66139;SDS011;52945;51.908;8.364;2022-09-09T10:59:13;2.63;;;0.82;;
66139;SDS011;52945;51.908;8.364;2022-09-09T11:02:36;2.40;;;0.70;;
66139;SDS011;52945;51.908;8.364;2022-09-09T11:08:42;2.42;;;0.75;;
66139;SDS011;52945;51.908;8.364;2022-09-09T11:11:47;2.28;;;0.60;;
66139;SDS011;52945;51.908;8.364;2022-09-09T11:15:04;1.35;;;0.43;;
66139;SDS011;52945;51.908;8.364;2022-09-09T11:18:17;1.60;;;0.70;;
66139;SDS011;52945;51.908;8.364;2022-09-09T11:21:22;1.70;;;0.70;;
66139;SDS011;52945;51.908;8.364;2022-09-09T11:24:30;2.47;;;0.82;;
66139;SDS011;52945;51.908;8.364;2022-09-09T11:31:16;1.92;;;0.82;;
66139;SDS011;52945;51.908;8.364;2022-09-09T11:40:58;1.02;;;0.40;;
66139;SDS011;52945;51.908;8.364;2022-09-09T11:44:09;4.35;;;0.57;;
66139;SDS011;52945;51.908;8.364;2022-09-09T11:47:20;1.65;;;0.63;;
66139;SDS011;52945;51.908;8.364;2022-09-09T11:50:27;3.22;;;0.63;;
66139;SDS011;52945;51.908;8.364;2022-09-09T11:53:35;1.85;;;0.60;;
66139;SDS011;52945;51.908;8.364;2022-09-09T11:56:47;0.70;;;0.47;;
66139;SDS011;52945;51.908;8.364;2022-09-09T11:59:52;1.02;;;0.47;;
66139;SDS011;52945;51.908;8.364;2022-09-09T12:02:52;1.38;;;0.52;;
66139;SDS011;52945;51.908;8.364;2022-09-09T12:05:53;1.83;;;0.60;;
66139;SDS011;52945;51.908;8.364;2022-09-09T12:09:07;1.45;;;0.40;;
66139;SDS011;52945;51.908;8.364;2022-09-09T12:15:23;2.33;;;0.57;;
66139;SDS011;52945;51.908;8.364;2022-09-09T12:18:35;3.45;;;0.80;;
66139;SDS011;52945;51.908;8.364;2022-09-09T12:21:42;4.03;;;0.70;;
66139;SDS011;52945;51.908;8.364;2022-09-09T12:34:23;0.73;;;0.40;;
66139;SDS011;52945;51.908;8.364;2022-09-09T12:37:36;3.40;;;0.90;;
66139;SDS011;52945;51.908;8.364;2022-09-09T12:40:58;1.60;;;0.55;;
66139;SDS011;52945;51.908;8.364;2022-09-09T12:44:05;2.10;;;0.70;;
66139;SDS011;52945;51.908;8.364;2022-09-09T12:47:09;1.80;;;0.40;;
66139;SDS011;52945;51.908;8.364;2022-09-09T12:50:16;2.33;;;0.75;;
66139;SDS011;52945;51.908;8.364;2022-09-09T12:53:24;1.48;;;0.60;;
66139;SDS011;52945;51.908;8.364;2022-09-09T12:56:31;0.50;;;0.50;;
66139;SDS011;52945;51.908;8.364;2022-09-09T12:59:39;1.45;;;0.60;;
66139;SDS011;52945;51.908;8.364;2022-09-09T13:02:46;1.88;;;0.60;;
66139;SDS011;52945;51.908;8.364;2022-09-09T13:05:49;2.92;;;1.17;;
66139;SDS011;52945;51.908;8.364;2022-09-09T13:08:51;1.65;;;0.70;;
66139;SDS011;52945;51.908;8.364;2022-09-09T13:11:54;2.10;;;0.70;;
66139;SDS011;52945;51.908;8.364;2022-09-09T13:14:58;0.95;;;0.60;;
66139;SDS011;52945;51.908;8.364;2022-09-09T13:18:00;1.77;;;0.47;;
66139;SDS011;52945;51.908;8.364;2022-09-09T13:21:06;0.47;;;0.40;;
66139;SDS011;52945;51.908;8.364;2022-09-09T13:24:19;2.10;;;0.50;;
66139;SDS011;52945;51.908;8.364;2022-09-09T13:27:35;1.92;;;0.45;;
66139;SDS011;52945;51.908;8.364;2022-09-09T13:30:41;1.10;;;0.45;;
66139;SDS011;52945;51.908;8.364;2022-09-09T13:33:44;1.73;;;0.68;;
66139;SDS011;52945;51.908;8.364;2022-09-09T13:36:46;1.50;;;0.45;;
66139;SDS011;52945;51.908;8.364;2022-09-09T13:39:52;0.50;;;0.40;;
66139;SDS011;52945;51.908;8.364;2022-09-09T13:42:55;0.77;;;0.35;;
66139;SDS011;52945;51.908;8.364;2022-09-09T13:45:58;1.27;;;0.65;;
66139;SDS011;52945;51.908;8.364;2022-09-09T13:52:11;1.10;;;0.50;;
66139;SDS011;52945;51.908;8.364;2022-09-09T13:55:13;1.08;;;0.50;;
66139;SDS011;52945;51.908;8.364;2022-09-09T13:58:15;1.65;;;0.50;;
66139;SDS011;52945;51.908;8.364;2022-09-09T14:01:18;1.10;;;0.30;;
66139;SDS011;52945;51.908;8.364;2022-09-09T14:04:19;3.47;;;0.50;;
66139;SDS011;52945;51.908;8.364;2022-09-09T14:07:22;1.17;;;0.32;;
66139;SDS011;52945;51.908;8.364;2022-09-09T14:10:23;1.70;;;0.52;;
66139;SDS011;52945;51.908;8.364;2022-09-09T14:13:23;1.38;;;0.50;;
66139;SDS011;52945;51.908;8.364;2022-09-09T14:16:24;1.63;;;0.63;;
66139;SDS011;52945;51.908;8.364;2022-09-09T14:19:26;1.60;;;0.35;;
66139;SDS011;52945;51.908;8.364;2022-09-09T14:22:27;2.38;;;0.52;;
66139;SDS011;52945;51.908;8.364;2022-09-09T14:25:28;1.00;;;0.50;;
66139;SDS011;52945;51.908;8.364;2022-09-09T14:28:28;1.23;;;0.60;;
66139;SDS011;52945;51.908;8.364;2022-09-09T14:31:29;1.88;;;0.80;;
66139;SDS011;52945;51.908;8.364;2022-09-09T14:34:30;1.75;;;0.50;;
66139;SDS011;52945;51.908;8.364;2022-09-09T14:37:32;0.55;;;0.47;;
66139;SDS011;52945;51.908;8.364;2022-09-09T14:40:33;0.65;;;0.47;;
66139;SDS011;52945;51.908;8.364;2022-09-09T14:43:35;1.08;;;0.43;;
66139;SDS011;52945;51.908;8.364;2022-09-09T14:46:37;0.68;;;0.40;;
66139;SDS011;52945;51.908;8.364;2022-09-09T14:49:38;0.80;;;0.50;;
66139;SDS011;52945;51.908;8.364;2022-09-09T14:52:38;2.05;;;0.57;;
66139;SDS011;52945;51.908;8.364;2022-09-09T14:55:39;1.52;;;0.50;;
66139;SDS011;52945;51.908;8.364;2022-09-09T14:58:40;0.40;;;0.40;;
66139;SDS011;52945;51.908;8.364;2022-09-09T15:01:40;1.33;;;0.60;;
66139;SDS011;52945;51.908;8.364;2022-09-09T15:04:41;1.35;;;0.60;;
66139;SDS011;52945;51.908;8.364;2022-09-09T15:07:41;2.42;;;0.80;;
66139;SDS011;52945;51.908;8.364;2022-09-09T15:10:42;2.72;;;0.52;;
66139;SDS011;52945;51.908;8.364;2022-09-09T15:13:45;1.10;;;0.55;;
66139;SDS011;52945;51.908;8.364;2022-09-09T15:16:47;2.13;;;0.50;;
66139;SDS011;52945;51.908;8.364;2022-09-09T15:19:47;2.25;;;0.60;;
66139;SDS011;52945;51.908;8.364;2022-09-09T15:22:50;1.58;;;0.70;;
66139;SDS011;52945;51.908;8.364;2022-09-09T15:25:53;1.25;;;0.60;;
66139;SDS011;52945;51.908;8.364;2022-09-09T15:28:55;1.67;;;0.50;;
66139;SDS011;52945;51.908;8.364;2022-09-09T15:31:59;2.05;;;0.60;;
66139;SDS011;52945;51.908;8.364;2022-09-09T15:34:59;1.00;;;0.68;;
66139;SDS011;52945;51.908;8.364;2022-09-09T15:38:02;1.80;;;0.47;;
66139;SDS011;52945;51.908;8.364;2022-09-09T15:41:04;2.63;;;0.60;;
66139;SDS011;52945;51.908;8.364;2022-09-09T15:44:05;2.92;;;0.60;;
66139;SDS011;52945;51.908;8.364;2022-09-09T15:47:07;4.10;;;0.60;;
66139;SDS011;52945;51.908;8.364;2022-09-09T15:50:11;0.40;;;0.40;;
66139;SDS011;52945;51.908;8.364;2022-09-09T15:53:12;3.10;;;0.65;;
66139;SDS011;52945;51.908;8.364;2022-09-09T15:56:12;0.63;;;0.43;;
66139;SDS011;52945;51.908;8.364;2022-09-09T15:59:13;1.42;;;0.60;;
66139;SDS011;52945;51.908;8.364;2022-09-09T16:02:14;1.48;;;0.40;;
66139;SDS011;52945;51.908;8.364;2022-09-09T16:05:15;1.25;;;0.63;;
66139;SDS011;52945;51.908;8.364;2022-09-09T16:08:17;1.27;;;0.88;;
66139;SDS011;52945;51.908;8.364;2022-09-09T16:11:28;0.88;;;0.65;;
66139;SDS011;52945;51.908;8.364;2022-09-09T16:14:31;1.85;;;0.40;;
66139;SDS011;52945;51.908;8.364;2022-09-09T16:17:34;1.42;;;0.68;;
66139;SDS011;52945;51.908;8.364;2022-09-09T16:20:37;2.05;;;0.60;;
66139;SDS011;52945;51.908;8.364;2022-09-09T16:23:41;0.50;;;0.50;;
66139;SDS011;52945;51.908;8.364;2022-09-09T16:26:42;2.08;;;0.50;;
66139;SDS011;52945;51.908;8.364;2022-09-09T16:29:45;3.15;;;0.80;;
66139;SDS011;52945;51.908;8.364;2022-09-09T16:32:45;3.17;;;0.60;;
66139;SDS011;52945;51.908;8.364;2022-09-09T16:35:46;1.85;;;0.65;;
66139;SDS011;52945;51.908;8.364;2022-09-09T16:38:46;1.40;;;0.60;;
66139;SDS011;52945;51.908;8.364;2022-09-09T16:41:48;0.77;;;0.65;;
66139;SDS011;52945;51.908;8.364;2022-09-09T16:44:49;2.65;;;0.80;;
66139;SDS011;52945;51.908;8.364;2022-09-09T16:47:51;1.88;;;0.50;;
66139;SDS011;52945;51.908;8.364;2022-09-09T16:50:52;2.47;;;0.77;;
66139;SDS011;52945;51.908;8.364;2022-09-09T16:53:53;1.17;;;0.30;;
66139;SDS011;52945;51.908;8.364;2022-09-09T16:56:54;0.80;;;0.35;;
66139;SDS011;52945;51.908;8.364;2022-09-09T16:59:55;0.80;;;0.40;;
66139;SDS011;52945;51.908;8.364;2022-09-09T17:02:59;1.10;;;0.43;;
66139;SDS011;52945;51.908;8.364;2022-09-09T17:05:59;1.02;;;0.70;;
66139;SDS011;52945;51.908;8.364;2022-09-09T17:09:03;0.98;;;0.70;;
66139;SDS011;52945;51.908;8.364;2022-09-09T17:12:08;3.03;;;0.70;;
66139;SDS011;52945;51.908;8.364;2022-09-09T17:15:09;2.00;;;0.70;;
66139;SDS011;52945;51.908;8.364;2022-09-09T17:18:10;2.20;;;0.68;;
66139;SDS011;52945;51.908;8.364;2022-09-09T17:21:12;1.90;;;0.65;;
66139;SDS011;52945;51.908;8.364;2022-09-09T17:24:14;2.67;;;0.90;;
66139;SDS011;52945;51.908;8.364;2022-09-09T17:27:15;0.75;;;0.50;;
66139;SDS011;52945;51.908;8.364;2022-09-09T17:30:16;1.23;;;0.50;;
66139;SDS011;52945;51.908;8.364;2022-09-09T17:33:17;1.42;;;0.80;;
66139;SDS011;52945;51.908;8.364;2022-09-09T17:36:26;1.30;;;0.80;;
66139;SDS011;52945;51.908;8.364;2022-09-09T17:39:31;2.38;;;0.70;;
66139;SDS011;52945;51.908;8.364;2022-09-09T17:42:32;1.85;;;0.52;;
66139;SDS011;52945;51.908;8.364;2022-09-09T17:45:35;5.32;;;0.75;;
66139;SDS011;52945;51.908;8.364;2022-09-09T17:48:36;3.45;;;0.90;;
66139;SDS011;52945;51.908;8.364;2022-09-09T17:51:37;0.70;;;0.40;;
66139;SDS011;52945;51.908;8.364;2022-09-09T17:54:38;0.73;;;0.50;;
66139;SDS011;52945;51.908;8.364;2022-09-09T17:57:40;0.85;;;0.50;;
66139;SDS011;52945;51.908;8.364;2022-09-09T18:00:42;0.32;;;0.30;;
66139;SDS011;52945;51.908;8.364;2022-09-09T18:03:43;1.10;;;0.55;;
66139;SDS011;52945;51.908;8.364;2022-09-09T18:06:47;0.70;;;0.70;;
66139;SDS011;52945;51.908;8.364;2022-09-09T18:09:50;1.08;;;0.60;;
66139;SDS011;52945;51.908;8.364;2022-09-09T18:12:51;0.77;;;0.57;;
66139;SDS011;52945;51.908;8.364;2022-09-09T18:15:52;1.85;;;0.60;;
66139;SDS011;52945;51.908;8.364;2022-09-09T18:18:56;1.42;;;0.60;;
66139;SDS011;52945;51.908;8.364;2022-09-09T18:22:03;1.60;;;0.60;;
66139;SDS011;52945;51.908;8.364;2022-09-09T18:25:04;0.95;;;0.57;;
66139;SDS011;52945;51.908;8.364;2022-09-09T18:28:05;1.83;;;0.60;;
66139;SDS011;52945;51.908;8.364;2022-09-09T18:31:08;0.90;;;0.63;;
66139;SDS011;52945;51.908;8.364;2022-09-09T18:34:11;3.38;;;0.60;;
66139;SDS011;52945;51.908;8.364;2022-09-09T18:37:13;0.88;;;0.65;;
66139;SDS011;52945;51.908;8.364;2022-09-09T18:40:14;1.52;;;0.80;;
66139;SDS011;52945;51.908;8.364;2022-09-09T18:43:15;1.50;;;0.60;;
66139;SDS011;52945;51.908;8.364;2022-09-09T18:46:18;1.75;;;0.77;;
66139;SDS011;52945;51.908;8.364;2022-09-09T18:49:19;1.40;;;0.90;;
66139;SDS011;52945;51.908;8.364;2022-09-09T18:52:21;3.47;;;0.70;;
66139;SDS011;52945;51.908;8.364;2022-09-09T18:55:21;1.15;;;0.65;;
66139;SDS011;52945;51.908;8.364;2022-09-09T18:58:22;1.90;;;0.73;;
66139;SDS011;52945;51.908;8.364;2022-09-09T19:01:24;1.13;;;0.60;;
66139;SDS011;52945;51.908;8.364;2022-09-09T19:04:25;1.10;;;0.80;;
66139;SDS011;52945;51.908;8.364;2022-09-09T19:07:26;1.38;;;0.63;;
66139;SDS011;52945;51.908;8.364;2022-09-09T19:10:27;2.08;;;0.70;;
66139;SDS011;52945;51.908;8.364;2022-09-09T19:13:30;1.42;;;0.80;;
66139;SDS011;52945;51.908;8.364;2022-09-09T19:16:31;1.25;;;0.70;;
66139;SDS011;52945;51.908;8.364;2022-09-09T19:19:33;0.68;;;0.68;;
66139;SDS011;52945;51.908;8.364;2022-09-09T19:22:35;1.30;;;0.60;;
66139;SDS011;52945;51.908;8.364;2022-09-09T19:25:36;2.22;;;0.82;;
66139;SDS011;52945;51.908;8.364;2022-09-09T19:28:37;1.80;;;0.60;;
66139;SDS011;52945;51.908;8.364;2022-09-09T19:31:39;2.95;;;0.60;;
66139;SDS011;52945;51.908;8.364;2022-09-09T19:34:40;2.78;;;0.57;;
66139;SDS011;52945;51.908;8.364;2022-09-09T19:37:43;0.73;;;0.63;;
66139;SDS011;52945;51.908;8.364;2022-09-09T19:40:43;1.75;;;0.80;;
66139;SDS011;52945;51.908;8.364;2022-09-09T19:43:44;2.83;;;1.02;;
66139;SDS011;52945;51.908;8.364;2022-09-09T19:46:45;1.35;;;0.50;;
66139;SDS011;52945;51.908;8.364;2022-09-09T19:49:46;3.10;;;0.63;;
66139;SDS011;52945;51.908;8.364;2022-09-09T19:52:47;3.00;;;0.70;;
66139;SDS011;52945;51.908;8.364;2022-09-09T19:55:48;2.08;;;0.50;;
66139;SDS011;52945;51.908;8.364;2022-09-09T19:58:52;1.83;;;0.57;;
66139;SDS011;52945;51.908;8.364;2022-09-09T20:01:53;0.55;;;0.52;;
66139;SDS011;52945;51.908;8.364;2022-09-09T20:04:57;0.50;;;0.50;;
66139;SDS011;52945;51.908;8.364;2022-09-09T20:11:00;1.52;;;0.50;;
66139;SDS011;52945;51.908;8.364;2022-09-09T20:14:01;0.52;;;0.52;;
66139;SDS011;52945;51.908;8.364;2022-09-09T20:17:02;3.10;;;0.95;;
66139;SDS011;52945;51.908;8.364;2022-09-09T20:20:03;3.08;;;0.93;;
66139;SDS011;52945;51.908;8.364;2022-09-09T20:23:04;2.53;;;0.63;;
66139;SDS011;52945;51.908;8.364;2022-09-09T20:29:07;0.80;;;0.57;;
66139;SDS011;52945;51.908;8.364;2022-09-09T20:32:11;1.95;;;0.68;;
66139;SDS011;52945;51.908;8.364;2022-09-09T20:35:12;0.60;;;0.60;;
66139;SDS011;52945;51.908;8.364;2022-09-09T20:38:14;2.25;;;0.75;;
66139;SDS011;52945;51.908;8.364;2022-09-09T20:41:15;0.50;;;0.50;;
66139;SDS011;52945;51.908;8.364;2022-09-09T20:44:21;1.30;;;0.70;;
66139;SDS011;52945;51.908;8.364;2022-09-09T20:47:23;2.50;;;0.70;;
66139;SDS011;52945;51.908;8.364;2022-09-09T20:50:23;1.08;;;0.70;;
66139;SDS011;52945;51.908;8.364;2022-09-09T20:56:26;1.52;;;0.57;;
66139;SDS011;52945;51.908;8.364;2022-09-09T20:59:31;1.83;;;1.02;;
66139;SDS011;52945;51.908;8.364;2022-09-09T21:02:34;2.22;;;0.73;;
66139;SDS011;52945;51.908;8.364;2022-09-09T21:05:35;1.42;;;0.70;;
66139;SDS011;52945;51.908;8.364;2022-09-09T21:08:37;0.80;;;0.80;;
66139;SDS011;52945;51.908;8.364;2022-09-09T21:14:38;1.00;;;0.80;;
66139;SDS011;52945;51.908;8.364;2022-09-09T21:17:39;0.60;;;0.57;;
66139;SDS011;52945;51.908;8.364;2022-09-09T21:20:40;2.10;;;0.95;;
66139;SDS011;52945;51.908;8.364;2022-09-09T21:23:42;1.95;;;0.80;;
66139;SDS011;52945;51.908;8.364;2022-09-09T21:26:43;2.13;;;0.65;;
66139;SDS011;52945;51.908;8.364;2022-09-09T21:29:43;1.48;;;0.70;;
66139;SDS011;52945;51.908;8.364;2022-09-09T21:32:44;0.80;;;0.63;;
66139;SDS011;52945;51.908;8.364;2022-09-09T21:35:45;0.80;;;0.65;;
66139;SDS011;52945;51.908;8.364;2022-09-09T21:38:46;1.48;;;0.70;;
66139;SDS011;52945;51.908;8.364;2022-09-09T21:44:47;0.90;;;0.60;;
66139;SDS011;52945;51.908;8.364;2022-09-09T21:50:49;1.63;;;0.68;;
66139;SDS011;52945;51.908;8.364;2022-09-09T21:56:53;1.60;;;0.73;;
66139;SDS011;52945;51.908;8.364;2022-09-09T22:02:54;0.85;;;0.50;;
66139;SDS011;52945;51.908;8.364;2022-09-09T22:05:54;1.20;;;0.60;;
66139;SDS011;52945;51.908;8.364;2022-09-09T22:11:56;1.02;;;0.98;;
66139;SDS011;52945;51.908;8.364;2022-09-09T22:14:56;2.70;;;1.02;;
66139;SDS011;52945;51.908;8.364;2022-09-09T22:21:05;0.70;;;0.70;;
66139;SDS011;52945;51.908;8.364;2022-09-09T22:24:06;1.38;;;0.77;;